Startpagina
METAR-TAF:

METAR-TAF

Vliegvelden :

Oezjhorod, Oekraïne

breedte: 48-38-05N, lengte: 022-15-53E, hoogte: 117 m

Actueel weer

Dit bericht is 15 uur en het 5 minuten geleden gemaakt, om 18:00 UTC
Weinig wind
Temperatuur 26°C
Vochtigheid 48%
Druk 1014 hPa
Zicht 10 km of meer

METAR: UKLU 241800Z 00000MPS 9999 NSC 26/14 Q1014 R10/090070 NOSIG

Tijdstip: 12:05 (09:05 UTC)

Verwachting

Dit bericht is 15 uur en het 54 minuten geleden gemaakt, om 17:11 UTC
Verwachting geldig van 24 om 18 UTC tot 25 om 03 UTC
Wind 6 kt uit het oostzuidoosten
Zicht 10 km of meer

TAF: UKLU 241711Z 2418/2503 12003MPS 9999 NSC TX26/2418Z TN18/2503Z

Waarnemingen en weersverwachtingen van meer dan 4000 vliegvelden (METAR en TAF).

De beschikbare stations zijn de gele en rode punten op de kaart.

Ga met uw muis naar het station om de naam te zien.

Klik dan om waarnemingen en weersverwachtingen te zien.

kaart wijzigen: klik op de groene knoppen met een zwart kruis om in te zoomen, op de groene knop met een streepje om uit te zoomen of op de groene pijlen voor aangrenzende kaarten.


METAR-TAF: